Time;durP1;ratioP1;P1;durP2;ratioP2;P2;SDS_P1;SDS_P2;PMS_P1;PMS_P2;Temp;Humidity;BMP_temperature;BMP_pressure;BME280_temperature;BME280_humidity;BME280_pressure;Samples;Min_cycle;Max_cycle;Signal;HPM_P1;HPM_P2
2023/05/05 00:03:01;;;;;;;;;;;;;;;17.19;41.36;100880.13;5336241;32;34921;-76
2023/05/05 00:06:04;;;;;;;;;;;;;;;16.99;41.67;100886.62;5334758;32;34709;-74
2023/05/05 00:09:06;;;;;;;;;;;;;;;17.16;41.51;100876.81;5338921;32;34986;-75
2023/05/05 00:12:08;;;;;;;;;;;;;;;16.81;42.37;100895.66;5316151;32;35344;-69
2023/05/05 00:15:10;;;;;;;;;;;;;;;16.46;43.03;100889.62;5314844;32;34437;-69
2023/05/05 00:18:13;;;;;;;;;;;;;;;16.01;44.01;100890.34;5334978;32;34616;-70
2023/05/05 00:21:15;;;;;;;;;;;;;;;16.05;44.70;100897.22;5328821;32;34963;-70
2023/05/05 00:24:17;;;;;;;;;;;;;;;16.85;42.22;100894.53;5325441;32;36250;-76
2023/05/05 00:27:19;;;;;;;;;;;;;;;16.57;42.38;100897.00;5327937;32;44751;-70
2023/05/05 00:30:21;;;;;;;;;;;;;;;16.08;43.98;100895.22;5313020;32;35564;-76
2023/05/05 00:33:24;;;;;;;;;;;;;;;15.09;47.23;100890.63;5309635;32;35301;-74
2023/05/05 00:36:27;;;;;;;;;;;;;;;15.79;45.12;100882.69;5328241;32;35190;-75
2023/05/05 00:39:29;;;;;;;;;;;;;;;15.25;46.77;100882.75;5335734;32;34816;-74
2023/05/05 00:42:39;;;;;;;;;;;;;;;15.28;46.89;100877.31;5314770;32;35920;-69
2023/05/05 00:45:43;;;;;;;;;;;;;;;15.38;47.09;100875.91;5324290;32;33509;-69
2023/05/05 00:48:44;;;;;;;;;;;;;;;15.88;45.52;100880.38;5311616;32;35494;-75
2023/05/05 00:51:46;;;;;;;;;;;;;;;16.42;43.36;100878.34;5316364;32;35550;-69
2023/05/05 00:54:49;;;;;;;;;;;;;;;16.21;43.61;100875.06;5327490;32;45037;-69
2023/05/05 00:57:51;;;;;;;;;;;;;;;16.32;43.67;100873.63;5315813;32;34292;-74
2023/05/05 01:00:53;;;;;;;;;;;;;;;16.56;43.38;100869.62;5322868;32;36687;-74
2023/05/05 01:03:55;;;;;;;;;;;;;;;16.63;43.22;100880.75;5324849;32;35921;-74
2023/05/05 01:07:12;;;;;;;;;;;;;;;15.33;46.07;100875.31;5336071;32;35092;-74
2023/05/05 01:10:20;;;;;;;;;;;;;;;15.49;45.94;100872.72;5325414;32;35375;-69
2023/05/05 01:13:29;;;;;;;;;;;;;;;16.28;44.01;100872.06;5312870;32;47344;-74
2023/05/05 01:16:32;;;;;;;;;;;;;;;15.76;45.51;100870.44;5335536;32;34788;-76
2023/05/05 01:19:54;;;;;;;;;;;;;;;16.10;44.73;100869.50;5311285;32;34985;-70
2023/05/05 01:22:57;;;;;;;;;;;;;;;16.31;44.05;100864.81;5325583;32;44621;-74
2023/05/05 01:26:20;;;;;;;;;;;;;;;16.09;44.58;100866.91;5313701;32;36754;-74
2023/05/05 01:29:28;;;;;;;;;;;;;;;15.78;45.27;100859.75;5286995;32;45247;-70
2023/05/05 01:32:34;;;;;;;;;;;;;;;15.88;45.33;100853.03;5321106;32;35938;-75
2023/05/05 01:35:40;;;;;;;;;;;;;;;15.98;44.83;100868.38;5312034;32;34998;-74
2023/05/05 01:38:42;;;;;;;;;;;;;;;16.19;44.80;100863.69;5320439;32;34971;-70
2023/05/05 01:41:46;;;;;;;;;;;;;;;16.17;44.83;100860.28;5312842;32;35008;-70
2023/05/05 01:44:48;;;;;;;;;;;;;;;16.12;45.11;100867.63;5333601;32;45023;-70
2023/05/05 01:47:50;;;;;;;;;;;;;;;16.06;45.05;100862.66;5325950;32;36227;-74
2023/05/05 01:50:52;;;;;;;;;;;;;;;15.91;45.62;100863.50;5312046;32;35049;-76
2023/05/05 01:53:55;;;;;;;;;;;;;;;15.93;45.80;100864.25;5321034;32;35628;-74
2023/05/05 01:56:57;;;;;;;;;;;;;;;15.98;45.54;100864.88;5313279;32;34256;-74
2023/05/05 02:00:00;;;;;;;;;;;;;;;16.11;45.21;100865.91;5334334;32;34156;-75
2023/05/05 02:03:03;;;;;;;;;;;;;;;15.71;46.23;100864.53;5310343;32;35715;-70
2023/05/05 02:06:05;;;;;;;;;;;;;;;15.64;46.26;100857.84;5317546;32;36899;-69
2023/05/05 02:09:08;;;;;;;;;;;;;;;15.69;46.19;100848.72;5318565;32;36875;-74
2023/05/05 02:12:10;;;;;;;;;;;;;;;15.16;47.83;100854.97;5314084;32;34694;-74
2023/05/05 02:15:13;;;;;;;;;;;;;;;15.04;48.91;100860.87;5335238;32;35085;-69
2023/05/05 02:18:15;;;;;;;;;;;;;;;14.69;48.93;100856.47;5313345;32;34936;-75
2023/05/05 02:21:18;;;;;;;;;;;;;;;14.47;50.05;100856.63;5324693;32;35115;-75
2023/05/05 02:24:20;;;;;;;;;;;;;;;14.49;50.24;100855.66;5325683;32;46007;-75
2023/05/05 02:27:22;;;;;;;;;;;;;;;15.26;47.50;100852.69;5334678;32;34840;-76
2023/05/05 02:30:24;;;;;;;;;;;;;;;15.30;46.85;100854.25;5318786;32;34985;-70
2023/05/05 02:33:27;;;;;;;;;;;;;;;15.43;47.03;100859.78;5305856;32;34352;-68
2023/05/05 02:36:29;;;;;;;;;;;;;;;15.58;46.60;100856.31;5323649;32;35396;-74
2023/05/05 02:39:32;;;;;;;;;;;;;;;15.16;47.60;100854.97;5313514;32;34834;-75
2023/05/05 02:42:34;;;;;;;;;;;;;;;14.34;49.09;100854.53;5323503;32;35884;-76
2023/05/05 02:45:37;;;;;;;;;;;;;;;14.54;49.69;100853.63;5315222;32;34507;-74
2023/05/05 02:48:38;;;;;;;;;;;;;;;15.26;47.85;100850.03;5317199;32;35812;-69
2023/05/05 02:51:40;;;;;;;;;;;;;;;14.60;49.34;100857.75;5318430;32;35310;-74
2023/05/05 02:54:43;;;;;;;;;;;;;;;15.12;48.23;100848.09;5312136;32;35397;-75
2023/05/05 02:58:05;;;;;;;;;;;;;;;14.78;49.19;100861.31;5323488;32;35301;-75
2023/05/05 03:01:26;;;;;;;;;;;;;;;15.05;48.75;100853.78;5314676;32;34441;-73
2023/05/05 03:04:30;;;;;;;;;;;;;;;15.48;47.52;100862.19;5332692;32;34888;-74
2023/05/05 03:07:46;;;;;;;;;;;;;;;15.35;47.91;100856.69;5325098;32;34636;-70
2023/05/05 03:11:07;;;;;;;;;;;;;;;14.77;49.84;100857.81;5312764;32;45405;-71
2023/05/05 03:14:10;;;;;;;;;;;;;;;14.62;50.90;100862.06;5320050;32;34608;-69
2023/05/05 03:17:12;;;;;;;;;;;;;;;14.95;50.25;100861.34;5314848;32;35533;-70
2023/05/05 03:20:14;;;;;;;;;;;;;;;15.00;50.68;100855.81;5320511;32;34550;-75
2023/05/05 03:23:19;;;;;;;;;;;;;;;15.01;50.21;100853.09;5329299;32;35291;-70
2023/05/05 03:26:21;;;;;;;;;;;;;;;14.51;51.81;100858.22;5315295;32;45274;-75
2023/05/05 03:29:24;;;;;;;;;;;;;;;14.44;52.56;100856.78;5332427;32;35099;-69
2023/05/05 03:32:26;;;;;;;;;;;;;;;14.93;51.05;100860.53;5312422;32;35400;-75
2023/05/05 03:35:28;;;;;;;;;;;;;;;15.32;49.96;100851.53;5339022;32;35494;-75
2023/05/05 03:38:30;;;;;;;;;;;;;;;14.36;52.75;100855.34;5325597;32;35559;-75
2023/05/05 03:41:32;;;;;;;;;;;;;;;14.86;51.92;100856.50;5333819;32;35317;-74
2023/05/05 03:44:34;;;;;;;;;;;;;;;14.51;53.00;100858.22;5331272;32;34966;-69
2023/05/05 03:47:36;;;;;;;;;;;;;;;14.02;54.81;100857.81;5327385;32;34113;-71
2023/05/05 03:50:38;;;;;;;;;;;;;;;14.56;53.62;100859.72;5337032;32;34299;-74
2023/05/05 03:53:40;;;;;;;;;;;;;;;14.41;54.03;100863.03;5327341;32;34136;-76
2023/05/05 03:56:42;;;;;;;;;;;;;;;14.56;53.72;100859.72;5323219;32;34603;-75
2023/05/05 03:59:44;;;;;;;;;;;;;;;15.03;52.97;100866.25;5312027;32;35607;-75
2023/05/05 04:02:46;;;;;;;;;;;;;;;15.28;51.15;100871.19;5331374;32;35657;-75
2023/05/05 04:05:48;;;;;;;;;;;;;;;15.15;52.08;100870.94;5318484;32;44988;-75
2023/05/05 04:08:50;;;;;;;;;;;;;;;15.67;50.57;100868.28;5329214;32;34554;-75
2023/05/05 04:11:52;;;;;;;;;;;;;;;14.87;51.94;100869.62;5337625;32;35107;-70
2023/05/05 04:14:54;;;;;;;;;;;;;;;15.25;52.15;100876.59;5326945;32;34999;-69
2023/05/05 04:17:56;;;;;;;;;;;;;;;14.17;55.48;100880.03;5335860;32;35335;-75
2023/05/05 04:20:58;;;;;;;;;;;;;;;14.70;53.75;100885.50;5327133;32;34677;-75
2023/05/05 04:24:00;;;;;;;;;;;;;;;15.43;51.58;100873.88;5316564;32;34469;-69
2023/05/05 04:27:02;;;;;;;;;;;;;;;15.12;51.74;100874.56;5333068;32;35182;-75
2023/05/05 04:30:05;;;;;;;;;;;;;;;15.17;51.77;100869.91;5302742;32;34736;-75
2023/05/05 04:33:08;;;;;;;;;;;;;;;15.01;52.84;100879.56;5326429;32;34717;-74
2023/05/05 04:36:10;;;;;;;;;;;;;;;15.89;50.44;100868.84;5326278;32;35617;-75
2023/05/05 04:39:12;;;;;;;;;;;;;;;16.31;48.93;100882.53;5324212;32;34224;-71
2023/05/05 04:42:14;;;;;;;;;;;;;;;14.40;52.78;100890.41;5326292;32;35318;-76
2023/05/05 04:45:16;;;;;;;;;;;;;;;15.42;50.37;100884.56;5317398;32;35051;-75
2023/05/05 04:48:19;;;;;;;;;;;;;;;15.92;48.81;100891.69;5333224;32;44306;-74
2023/05/05 04:51:21;;;;;;;;;;;;;;;16.19;48.11;100889.34;5326172;32;35775;-74
2023/05/05 04:54:23;;;;;;;;;;;;;;;15.89;48.49;100892.69;5335413;32;35129;-70
2023/05/05 04:57:25;;;;;;;;;;;;;;;16.32;47.32;100897.50;5326560;32;34696;-74
2023/05/05 05:00:27;;;;;;;;;;;;;;;16.87;45.87;100899.72;5337678;32;35582;-69
2023/05/05 05:03:30;;;;;;;;;;;;;;;15.90;48.31;100896.22;5326371;32;35269;-70
2023/05/05 05:06:33;;;;;;;;;;;;;;;16.61;46.36;100902.03;5330899;32;34862;-75
2023/05/05 05:09:35;;;;;;;;;;;;;;;17.52;44.34;100903.03;5319480;32;35632;-70
2023/05/05 05:12:37;;;;;;;;;;;;;;;17.45;44.22;100901.66;5326655;32;35576;-75
2023/05/05 05:15:39;;;;;;;;;;;;;;;17.31;43.73;100905.13;5337480;32;34650;-75
2023/05/05 05:18:41;;;;;;;;;;;;;;;17.54;43.50;100909.94;5309998;32;34382;-70
2023/05/05 05:21:43;;;;;;;;;;;;;;;18.81;40.42;100901.22;5337423;32;35386;-76
2023/05/05 05:24:45;;;;;;;;;;;;;;;18.90;40.86;100898.78;5311908;32;35280;-76
2023/05/05 05:27:47;;;;;;;;;;;;;;;20.35;37.72;100890.63;5313863;32;34459;-75
2023/05/05 05:31:09;;;;;;;;;;;;;;;20.12;37.78;100902.06;5314123;32;34593;-70
2023/05/05 05:34:11;;;;;;;;;;;;;;;19.10;40.37;100907.28;5326132;32;35886;-75
2023/05/05 05:37:13;;;;;;;;;;;;;;;20.36;37.19;100908.34;5323856;32;35653;-70
2023/05/05 05:40:15;;;;;;;;;;;;;;;20.18;36.32;100907.84;5294535;32;1040719;-70
2023/05/05 05:43:17;;;;;;;;;;;;;;;20.10;37.10;100915.53;5336707;32;35395;-70
2023/05/05 05:46:19;;;;;;;;;;;;;;;20.19;37.36;100909.53;5319602;32;44399;-76
2023/05/05 05:49:22;;;;;;;;;;;;;;;20.76;35.86;100918.84;5320961;32;35131;-76
2023/05/05 05:52:24;;;;;;;;;;;;;;;21.33;35.12;100913.69;5328764;32;35482;-70
2023/05/05 05:55:26;;;;;;;;;;;;;;;22.10;33.42;100913.12;5331568;32;35410;-76
2023/05/05 05:58:28;;;;;;;;;;;;;;;22.53;32.50;100910.53;5347198;32;35299;-71
2023/05/05 06:01:30;;;;;;;;;;;;;;;20.42;35.56;100920.41;5338650;32;34464;-75
2023/05/05 06:04:32;;;;;;;;;;;;;;;22.15;32.66;100908.25;5338528;32;34956;-75
2023/05/05 06:07:34;;;;;;;;;;;;;;;22.88;31.32;100909.53;5336932;32;35385;-69
2023/05/05 06:10:36;;;;;;;;;;;;;;;21.31;33.61;100923.59;5336071;32;35531;-76
2023/05/05 06:13:37;;;;;;;;;;;;;;;21.75;33.03;100910.47;5339951;32;35202;-70
2023/05/05 06:16:39;;;;;;;;;;;;;;;20.69;34.65;100918.44;5316117;32;34345;-76
2023/05/05 06:19:42;;;;;;;;;;;;;;;20.28;36.15;100924.87;5331952;32;35501;-75
2023/05/05 06:22:44;;;;;;;;;;;;;;;19.88;36.37;100921.50;5329354;32;35441;-71
2023/05/05 06:25:46;;;;;;;;;;;;;;;20.01;35.50;100917.00;5343410;32;34606;-70
2023/05/05 06:28:48;;;;;;;;;;;;;;;20.80;33.57;100918.50;5330540;32;44392;-70
2023/05/05 06:31:50;;;;;;;;;;;;;;;22.00;31.87;100896.03;5318377;32;34848;-76
2023/05/05 06:34:52;;;;;;;;;;;;;;;21.52;32.83;100902.44;5343758;32;34492;-70
2023/05/05 06:37:54;;;;;;;;;;;;;;;21.09;32.29;100905.63;5322686;32;35010;-72
2023/05/05 06:40:57;;;;;;;;;;;;;;;20.24;34.04;100907.41;5331891;32;35582;-77
2023/05/05 06:44:01;;;;;;;;;;;;;;;20.98;33.48;100897.56;5315429;32;35800;-70
2023/05/05 06:47:03;;;;;;;;;;;;;;;22.06;31.85;100901.75;5313358;32;35269;-71
2023/05/05 06:50:06;;;;;;;;;;;;;;;23.78;28.70;100899.22;5318670;32;35158;-74
2023/05/05 06:53:08;;;;;;;;;;;;;;;23.09;29.90;100896.16;5322045;32;34248;-76
2023/05/05 06:56:10;;;;;;;;;;;;;;;24.69;27.13;100895.63;5339874;32;35371;-77
2023/05/05 06:59:12;;;;;;;;;;;;;;;25.17;26.43;100892.16;5332695;32;35037;-71
2023/05/05 07:02:15;;;;;;;;;;;;;;;24.88;26.60;100891.28;5329996;32;35881;-75
2023/05/05 07:05:18;;;;;;;;;;;;;;;24.14;27.89;100888.94;5322326;32;34218;-71
2023/05/05 07:08:19;;;;;;;;;;;;;;;25.17;27.01;100900.22;5334196;32;34897;-70
2023/05/05 07:11:22;;;;;;;;;;;;;;;23.41;29.60;100890.75;5338862;32;35381;-75
2023/05/05 07:14:23;;;;;;;;;;;;;;;24.07;28.35;100887.78;5325771;32;35175;-76
2023/05/05 07:17:26;;;;;;;;;;;;;;;23.48;29.73;100892.78;5341503;32;35554;-76
2023/05/05 07:20:28;;;;;;;;;;;;;;;24.87;27.37;100894.97;5334615;32;35184;-71
2023/05/05 07:23:30;;;;;;;;;;;;;;;24.11;28.98;100883.84;5341870;32;34679;-75
2023/05/05 07:26:32;;;;;;;;;;;;;;;25.58;26.78;100884.78;5324720;32;34667;-70
2023/05/05 07:29:34;;;;;;;;;;;;;;;26.62;25.22;100882.84;5327554;32;34976;-75
2023/05/05 07:32:36;;;;;;;;;;;;;;;26.65;25.26;100874.44;5319835;32;34808;-71
2023/05/05 07:35:38;;;;;;;;;;;;;;;25.57;26.96;100881.25;5326966;32;35491;-70
2023/05/05 07:38:40;;;;;;;;;;;;;;;23.73;29.33;100886.19;5346128;32;34785;-70
2023/05/05 07:41:43;;;;;;;;;;;;;;;23.49;30.19;100886.44;5328604;32;34246;-70
2023/05/05 07:44:45;;;;;;;;;;;;;;;23.93;29.65;100891.66;5344035;32;35605;-77
2023/05/05 07:47:47;;;;;;;;;;;;;;;27.26;25.14;100882.66;5318675;32;35430;-77
2023/05/05 07:50:51;;;;;;;;;;;;;;;26.68;25.51;100882.22;5333287;32;44075;-69
2023/05/05 07:53:53;;;;;;;;;;;;;;;25.66;27.46;100885.75;5332352;32;36593;-76
2023/05/05 07:56:56;;;;;;;;;;;;;;;27.21;25.10;100881.41;5334536;32;35418;-70
2023/05/05 07:59:58;;;;;;;;;;;;;;;25.67;27.19;100882.03;5338605;32;35790;-76
2023/05/05 08:03:00;;;;;;;;;;;;;;;25.33;28.12;100880.84;5335837;32;34447;-76
2023/05/05 08:06:07;;;;;;;;;;;;;;;27.18;25.69;100885.28;5342532;32;34932;-77
2023/05/05 08:09:11;;;;;;;;;;;;;;;27.13;25.87;100879.50;5339747;32;34970;-78
2023/05/05 08:12:16;;;;;;;;;;;;;;;27.76;24.70;100873.09;5338622;32;36377;-77
2023/05/05 08:15:18;;;;;;;;;;;;;;;28.43;23.86;100870.53;5347702;32;44471;-70
2023/05/05 08:18:20;;;;;;;;;;;;;;;27.32;25.12;100867.69;5336709;32;34804;-76
2023/05/05 08:21:22;;;;;;;;;;;;;;;26.05;26.93;100868.63;5346071;32;34760;-69
2023/05/05 08:24:24;;;;;;;;;;;;;;;25.77;27.15;100871.28;5333872;32;34771;-77
2023/05/05 08:27:26;;;;;;;;;;;;;;;27.96;24.35;100852.09;5345824;32;35184;-71
2023/05/05 08:30:28;;;;;;;;;;;;;;;28.48;23.58;100868.19;5325582;32;35052;-70
2023/05/05 08:33:33;;;;;;;;;;;;;;;29.93;22.03;100862.97;5316667;32;34921;-70
2023/05/05 08:36:35;;;;;;;;;;;;;;;27.34;25.20;100870.22;5332729;32;35521;-76
2023/05/05 08:39:37;;;;;;;;;;;;;;;28.25;23.58;100857.09;5322182;32;37508;-76
2023/05/05 08:42:40;;;;;;;;;;;;;;;26.16;26.66;100869.31;5333833;32;34692;-77
2023/05/05 08:45:42;;;;;;;;;;;;;;;28.63;23.85;100857.59;5341928;32;34961;-70
2023/05/05 08:48:44;;;;;;;;;;;;;;;26.82;26.00;100867.37;5345359;32;36021;-77
2023/05/05 08:51:47;;;;;;;;;;;;;;;28.18;24.60;100872.28;5339225;32;34757;-79
2023/05/05 08:54:50;;;;;;;;;;;;;;;29.24;23.13;100865.28;5322993;32;47358;-77
2023/05/05 08:57:56;;;;;;;;;;;;;;;30.10;21.80;100851.09;5330864;32;34017;-77
2023/05/05 09:01:00;;;;;;;;;;;;;;;31.04;21.03;100849.19;5324192;32;35586;-77
2023/05/05 09:04:03;;;;;;;;;;;;;;;27.02;26.13;100857.25;5346475;32;35516;-77
2023/05/05 09:07:05;;;;;;;;;;;;;;;27.87;25.00;100858.44;5337870;32;34905;-77
2023/05/05 09:10:07;;;;;;;;;;;;;;;31.51;20.63;100845.41;5344824;32;35091;-71
2023/05/05 09:13:09;;;;;;;;;;;;;;;30.70;21.56;100838.75;5336765;32;34480;-72
2023/05/05 09:16:31;;;;;;;;;;;;;;;31.31;20.61;100833.41;5336324;32;35466;-71
2023/05/05 09:19:33;;;;;;;;;;;;;;;29.24;23.28;100850.87;5344443;32;35005;-71
2023/05/05 09:22:35;;;;;;;;;;;;;;;28.59;23.24;100843.53;5333505;32;35995;-78
2023/05/05 09:25:37;;;;;;;;;;;;;;;28.77;23.50;100846.09;5329126;32;35466;-76
2023/05/05 09:28:40;;;;;;;;;;;;;;;28.84;23.12;100839.00;5320971;32;36836;-77
2023/05/05 09:31:42;;;;;;;;;;;;;;;28.52;23.29;100837.94;5304268;32;34837;-77
2023/05/05 09:34:55;;;;;;;;;;;;;;;30.92;21.20;100821.66;5335346;32;34444;-71
2023/05/05 09:37:57;;;;;;;;;;;;;;;30.89;20.66;100815.72;5322383;32;44674;-72
2023/05/05 09:40:59;;;;;;;;;;;;;;;32.38;18.88;100810.25;5330161;32;34721;-78
2023/05/05 09:44:01;;;;;;;;;;;;;;;32.25;19.17;100810.06;5336611;32;35002;-73
2023/05/05 09:47:03;;;;;;;;;;;;;;;32.29;19.01;100812.22;5339107;32;34768;-71
2023/05/05 09:50:14;;;;;;;;;;;;;;;30.64;21.22;100805.03;5328225;32;34979;-71
2023/05/05 09:53:17;;;;;;;;;;;;;;;28.74;22.98;100814.84;5329255;32;34327;-77
2023/05/05 09:56:19;;;;;;;;;;;;;;;28.55;23.29;100818.69;5331293;32;45296;-72
2023/05/05 09:59:21;;;;;;;;;;;;;;;28.79;22.91;100812.50;5336860;32;36864;-76
2023/05/05 10:02:34;;;;;;;;;;;;;;;29.86;21.73;100805.94;5327996;32;34698;-79
2023/05/05 10:05:45;;;;;;;;;;;;;;;30.80;20.61;100798.69;5334195;32;34322;-80
2023/05/05 10:08:49;;;;;;;;;;;;;;;28.51;23.02;100814.62;5336181;32;34174;-71
2023/05/05 10:11:52;;;;;;;;;;;;;;;28.55;22.94;100804.34;5339339;32;44574;-71
2023/05/05 10:14:54;;;;;;;;;;;;;;;30.06;21.46;100794.69;5336423;32;35261;-71
2023/05/05 10:17:56;;;;;;;;;;;;;;;30.71;20.44;100789.75;5345920;32;35082;-77
2023/05/05 10:21:08;;;;;;;;;;;;;;;31.75;19.57;100788.09;5333573;32;35843;-77
2023/05/05 10:24:11;;;;;;;;;;;;;;;30.18;21.21;100788.72;5327106;32;34325;-71
2023/05/05 10:27:18;;;;;;;;;;;;;;;32.11;19.35;100781.88;5334237;32;35003;-71
2023/05/05 10:30:25;;;;;;;;;;;;;;;29.64;21.74;100788.59;5317752;32;46335;-73
2023/05/05 10:33:38;;;;;;;;;;;;;;;29.73;21.87;100783.97;5327203;32;35144;-77
2023/05/05 10:36:41;;;;;;;;;;;;;;;27.71;24.01;100789.00;5333427;32;34261;-72
2023/05/05 10:39:43;;;;;;;;;;;;;;;30.22;21.41;100769.41;5345303;32;35659;-71
2023/05/05 10:42:47;;;;;;;;;;;;;;;30.26;20.59;100765.28;5335820;32;35752;-79
2023/05/05 10:45:48;;;;;;;;;;;;;;;29.09;22.12;100764.12;5323855;32;47047;-71
2023/05/05 10:49:03;;;;;;;;;;;;;;;28.19;23.59;100771.28;5326522;32;35014;-71
2023/05/05 10:52:17;;;;;;;;;;;;;;;29.06;22.74;100754.50;5334280;32;35154;-78
2023/05/05 10:55:27;;;;;;;;;;;;;;;28.39;22.50;100755.63;5332745;32;44975;-72
2023/05/05 10:58:35;;;;;;;;;;;;;;;27.17;24.47;100759.44;5324116;32;37289;-71
2023/05/05 11:01:56;;;;;;;;;;;;;;;27.66;23.82;100746.25;5326962;32;44708;-71
2023/05/05 11:05:13;;;;;;;;;;;;;;;27.42;23.96;100746.97;5347579;32;35902;-78
2023/05/05 11:08:25;;;;;;;;;;;;;;;27.38;23.46;100744.75;5338852;32;35009;-82
2023/05/05 11:11:47;;;;;;;;;;;;;;;30.82;20.62;100731.50;5344443;32;44919;-71
2023/05/05 11:15:07;;;;;;;;;;;;;;;32.54;18.57;100728.41;5340090;32;45957;-71
2023/05/05 11:18:27;;;;;;;;;;;;;;;33.84;16.87;100716.94;5336311;32;34968;-78
2023/05/05 11:21:29;;;;;;;;;;;;;;;33.35;17.13;100717.91;5333495;32;34670;-75
2023/05/05 11:24:31;;;;;;;;;;;;;;;30.36;19.47;100726.09;5336476;32;35198;-78
2023/05/05 11:28:02;;;;;;;;;;;;;;;31.31;18.83;100714.75;5328522;32;35778;-71
2023/05/05 11:31:05;;;;;;;;;;;;;;;31.50;18.68;100718.78;5307191;32;35449;-71
2023/05/05 11:34:22;;;;;;;;;;;;;;;32.68;17.50;100707.59;5332753;32;34681;-71
2023/05/05 11:37:25;;;;;;;;;;;;;;;32.47;17.77;100710.34;5327249;32;45185;-73
2023/05/05 11:40:28;;;;;;;;;;;;;;;31.50;18.62;100705.19;5316689;32;35019;-75
2023/05/05 11:43:30;;;;;;;;;;;;;;;32.96;17.17;100687.72;5340282;32;35164;-77
2023/05/05 11:46:32;;;;;;;;;;;;;;;35.93;14.62;100687.25;5335713;32;35258;-71
2023/05/05 11:49:35;;;;;;;;;;;;;;;34.44;15.88;100687.13;5336003;32;34906;-70
2023/05/05 11:52:37;;;;;;;;;;;;;;;33.19;16.74;100688.31;5324916;32;34750;-71
2023/05/05 11:55:39;;;;;;;;;;;;;;;35.17;14.86;100676.19;5330692;32;34714;-76
2023/05/05 11:58:44;;;;;;;;;;;;;;;35.12;15.07;100668.63;5340546;32;35558;-71
2023/05/05 12:01:46;;;;;;;;;;;;;;;34.04;16.01;100675.28;5330525;32;33047;-71
2023/05/05 12:04:48;;;;;;;;;;;;;;;32.37;17.47;100680.72;5339964;32;44457;-75
2023/05/05 12:07:55;;;;;;;;;;;;;;;34.51;15.83;100668.03;5317485;32;36806;-72
2023/05/05 12:11:10;;;;;;;;;;;;;;;30.91;18.94;100678.00;5332881;32;34798;-76
2023/05/05 12:14:12;;;;;;;;;;;;;;;28.42;21.68;100675.06;5338949;32;35412;-77
2023/05/05 12:17:14;;;;;;;;;;;;;;;31.09;19.39;100664.06;5319496;32;34781;-77
2023/05/05 12:20:16;;;;;;;;;;;;;;;33.25;17.25;100654.81;5326881;32;34984;-77
2023/05/05 12:23:18;;;;;;;;;;;;;;;32.55;17.70;100659.34;5327978;32;45379;-71
2023/05/05 12:26:26;;;;;;;;;;;;;;;31.21;19.00;100663.41;5333923;32;35590;-76
2023/05/05 12:29:28;;;;;;;;;;;;;;;34.43;15.64;100648.09;5316555;32;34846;-71
2023/05/05 12:32:31;;;;;;;;;;;;;;;34.76;15.24;100658.13;5316533;32;35125;-78
2023/05/05 12:35:33;;;;;;;;;;;;;;;33.04;16.90;100652.16;5339974;32;33853;-70
2023/05/05 12:38:35;;;;;;;;;;;;;;;29.67;20.52;100654.66;5329445;32;36183;-75
2023/05/05 12:41:37;;;;;;;;;;;;;;;29.45;20.52;100656.28;5329634;32;35144;-77
2023/05/05 12:44:39;;;;;;;;;;;;;;;28.27;22.08;100655.06;5314999;32;36112;-70
2023/05/05 12:47:43;;;;;;;;;;;;;;;29.18;21.40;100645.91;5324000;32;35046;-71
2023/05/05 12:50:45;;;;;;;;;;;;;;;29.02;21.27;100646.78;5337921;32;34874;-71
2023/05/05 12:53:48;;;;;;;;;;;;;;;28.51;21.95;100644.28;5326944;32;35825;-77
2023/05/05 12:56:53;;;;;;;;;;;;;;;27.86;22.74;100656.88;5325606;32;45591;-77
2023/05/05 12:59:55;;;;;;;;;;;;;;;27.63;22.98;100645.81;5315561;32;34969;-77
2023/05/05 13:02:58;;;;;;;;;;;;;;;28.14;21.94;100633.94;5324289;32;33749;-70
2023/05/05 13:06:00;;;;;;;;;;;;;;;27.67;22.69;100630.97;5328298;32;35565;-76
2023/05/05 13:09:03;;;;;;;;;;;;;;;27.28;23.22;100628.81;5314626;32;35466;-76
2023/05/05 13:12:07;;;;;;;;;;;;;;;26.14;24.92;100626.16;5323515;32;35015;-77
2023/05/05 13:15:09;;;;;;;;;;;;;;;25.53;25.51;100621.47;5327932;32;35314;-76
2023/05/05 13:18:11;;;;;;;;;;;;;;;26.30;24.63;100613.84;5336883;32;34138;-76
2023/05/05 13:21:13;;;;;;;;;;;;;;;26.33;24.85;100605.44;5328328;32;35033;-76
2023/05/05 13:24:15;;;;;;;;;;;;;;;27.31;23.13;100606.94;5326790;32;34699;-71
2023/05/05 13:27:20;;;;;;;;;;;;;;;27.19;23.24;100603.66;5314885;32;44367;-70
2023/05/05 13:30:22;;;;;;;;;;;;;;;26.70;23.99;100602.53;5313501;32;34866;-70
2023/05/05 13:33:24;;;;;;;;;;;;;;;27.28;23.31;100596.44;5316480;32;34639;-72
2023/05/05 13:36:27;;;;;;;;;;;;;;;25.32;25.35;100602.06;5328374;32;35189;-72
2023/05/05 13:39:28;;;;;;;;;;;;;;;25.67;25.16;100591.34;5337988;32;34314;-71
2023/05/05 13:42:30;;;;;;;;;;;;;;;26.67;24.20;100587.53;5329787;32;35208;-71
2023/05/05 13:45:32;;;;;;;;;;;;;;;27.09;23.25;100580.50;5321087;32;34686;-79
2023/05/05 13:48:34;;;;;;;;;;;;;;;26.51;23.93;100581.19;5326794;32;35686;-77
2023/05/05 13:51:37;;;;;;;;;;;;;;;25.88;24.94;100577.59;5324065;32;35467;-70
2023/05/05 13:54:39;;;;;;;;;;;;;;;26.11;24.72;100575.28;5332930;32;35188;-72
2023/05/05 13:57:42;;;;;;;;;;;;;;;26.46;24.14;100577.09;5323564;32;34648;-70
2023/05/05 14:00:43;;;;;;;;;;;;;;;25.88;24.65;100574.91;5338325;32;34978;-78
2023/05/05 14:03:46;;;;;;;;;;;;;;;26.16;24.56;100570.28;5328131;32;35396;-76
2023/05/05 14:06:50;;;;;;;;;;;;;;;27.06;23.26;100578.16;5338059;32;45122;-75
2023/05/05 14:09:52;;;;;;;;;;;;;;;26.44;24.24;100571.03;5323580;32;35891;-79
2023/05/05 14:12:54;;;;;;;;;;;;;;;26.92;23.27;100564.25;5313949;32;35826;-76
2023/05/05 14:15:57;;;;;;;;;;;;;;;27.18;22.73;100566.06;5339405;32;34663;-77
2023/05/05 14:18:59;;;;;;;;;;;;;;;26.00;23.99;100574.69;5314876;32;34547;-78
2023/05/05 14:22:01;;;;;;;;;;;;;;;26.10;23.55;100567.38;5338600;32;33494;-72
2023/05/05 14:25:03;;;;;;;;;;;;;;;25.70;24.15;100560.59;5329634;32;34987;-71
2023/05/05 14:28:05;;;;;;;;;;;;;;;26.95;22.70;100563.91;5335425;32;35070;-70
2023/05/05 14:31:07;;;;;;;;;;;;;;;26.66;23.12;100569.66;5312411;32;37549;-71
2023/05/05 14:34:09;;;;;;;;;;;;;;;25.23;25.00;100557.22;5313448;32;35685;-76
2023/05/05 14:37:11;;;;;;;;;;;;;;;24.79;25.94;100563.19;5325116;32;34456;-77
2023/05/05 14:40:13;;;;;;;;;;;;;;;24.82;25.79;100562.06;5328469;32;35092;-71
2023/05/05 14:43:15;;;;;;;;;;;;;;;25.88;24.27;100550.69;5338134;32;35652;-77
2023/05/05 14:46:17;;;;;;;;;;;;;;;25.89;24.18;100549.72;5327912;32;35129;-71
2023/05/05 14:49:19;;;;;;;;;;;;;;;25.62;24.41;100555.09;5319405;32;44504;-75
2023/05/05 14:52:21;;;;;;;;;;;;;;;25.35;24.90;100556.84;5329079;32;34816;-70
2023/05/05 14:55:23;;;;;;;;;;;;;;;24.86;25.52;100555.41;5312066;32;34622;-77
2023/05/05 14:58:26;;;;;;;;;;;;;;;26.46;23.83;100544.75;5323998;32;33989;-69
2023/05/05 15:01:28;;;;;;;;;;;;;;;25.59;25.00;100547.34;5317542;32;34241;-77
2023/05/05 15:04:30;;;;;;;;;;;;;;;26.87;23.40;100544.16;5324025;32;34821;-76
2023/05/05 15:07:32;;;;;;;;;;;;;;;25.86;24.23;100546.47;5329187;32;34447;-80
2023/05/05 15:10:34;;;;;;;;;;;;;;;25.42;25.10;100543.62;5333657;32;35460;-71
2023/05/05 15:13:39;;;;;;;;;;;;;;;24.84;26.09;100539.41;5319469;32;35888;-71
2023/05/05 15:16:40;;;;;;;;;;;;;;;25.23;25.70;100541.91;5328100;32;35324;-78
2023/05/05 15:19:42;;;;;;;;;;;;;;;26.23;24.16;100543.56;5324670;32;34756;-71
2023/05/05 15:22:44;;;;;;;;;;;;;;;25.07;25.08;100544.44;5326851;32;36092;-77
2023/05/05 15:25:48;;;;;;;;;;;;;;;25.26;25.26;100544.31;5325125;32;44640;-75
2023/05/05 15:28:51;;;;;;;;;;;;;;;25.24;25.46;100543.59;5326863;32;34671;-71
2023/05/05 15:31:53;;;;;;;;;;;;;;;25.88;24.49;100541.75;5295778;32;34967;-70
2023/05/05 15:34:55;;;;;;;;;;;;;;;26.11;24.13;100531.34;5321594;32;34980;-70
2023/05/05 15:37:57;;;;;;;;;;;;;;;25.52;24.82;100533.66;5327289;32;35273;-77
2023/05/05 15:40:59;;;;;;;;;;;;;;;25.48;24.99;100528.75;5337556;32;34663;-71
2023/05/05 15:44:03;;;;;;;;;;;;;;;26.04;24.02;100530.28;5324901;32;35483;-71